createdAt,value
2023-03-26T00:03:55.309Z,11.80
2023-03-26T00:08:58.571Z,13.10
2023-03-26T00:14:02.997Z,13.20
2023-03-26T00:19:06.158Z,14.00
2023-03-26T00:24:15.578Z,11.70
2023-03-26T00:29:18.744Z,10.80
2023-03-26T00:34:23.056Z,11.50
2023-03-26T00:39:26.442Z,11.80
2023-03-26T00:44:31.055Z,10.70
2023-03-26T00:49:34.013Z,10.30
2023-03-26T00:54:37.009Z,10.00
2023-03-26T00:59:40.533Z,10.40
2023-03-26T01:04:59.420Z,9.90
2023-03-26T01:10:02.309Z,9.20
2023-03-26T01:15:08.296Z,9.20
2023-03-26T01:20:20.258Z,11.90
2023-03-26T01:25:23.219Z,9.60
2023-03-26T01:30:41.890Z,8.90
2023-03-26T01:36:00.005Z,10.50
2023-03-26T01:41:18.748Z,9.10
2023-03-26T01:51:39.795Z,9.40
2023-03-26T01:57:03.320Z,11.00
2023-03-26T02:02:10.308Z,8.20
2023-03-26T02:07:38.045Z,10.00
2023-03-26T02:12:42.603Z,8.80
2023-03-26T02:17:47.189Z,8.70
2023-03-26T02:22:50.185Z,9.10
2023-03-26T02:27:53.163Z,7.10
2023-03-26T02:32:59.359Z,9.40
2023-03-26T02:38:02.461Z,8.00
2023-03-26T02:43:05.388Z,9.20
2023-03-26T02:48:08.314Z,9.50
2023-03-26T02:53:12.036Z,11.60
2023-03-26T02:58:17.935Z,9.50
2023-03-26T03:03:25.775Z,8.60
2023-03-26T03:08:29.609Z,8.80
2023-03-26T03:13:32.555Z,8.30
2023-03-26T03:18:35.781Z,8.20
2023-03-26T03:23:38.594Z,7.70
2023-03-26T03:28:41.988Z,7.50
2023-03-26T03:33:46.423Z,8.00
2023-03-26T03:38:50.007Z,6.50
2023-03-26T03:43:52.907Z,6.70
2023-03-26T03:48:56.102Z,6.70
2023-03-26T03:53:58.970Z,6.80
2023-03-26T03:59:03.520Z,8.20
2023-03-26T04:04:06.453Z,6.20
2023-03-26T04:09:12.096Z,6.20
2023-03-26T04:14:14.951Z,6.40
2023-03-26T04:19:17.826Z,9.20
2023-03-26T04:24:22.492Z,6.40
2023-03-26T04:29:27.992Z,6.20
2023-03-26T04:34:31.063Z,8.10
2023-03-26T04:39:34.011Z,5.70
2023-03-26T04:44:36.858Z,6.80
2023-03-26T04:49:39.928Z,6.10
2023-03-26T04:54:44.308Z,8.20
2023-03-26T04:59:47.447Z,6.10
2023-03-26T05:04:50.884Z,8.00
2023-03-26T05:09:54.143Z,6.50
2023-03-26T05:14:57.004Z,6.30
2023-03-26T05:19:59.838Z,9.10
2023-03-26T05:25:06.353Z,7.50
2023-03-26T05:30:14.453Z,6.10
2023-03-26T05:35:17.953Z,8.10
2023-03-26T05:40:22.025Z,7.80
2023-03-26T05:45:25.620Z,8.30
2023-03-26T05:50:28.499Z,7.80
2023-03-26T05:55:33.501Z,8.20
2023-03-26T06:00:38.963Z,8.80
2023-03-26T06:05:43.011Z,7.90
2023-03-26T06:10:46.007Z,6.80
2023-03-26T06:15:48.889Z,6.30
2023-03-26T06:20:52.898Z,5.40
2023-03-26T06:25:56.268Z,6.50
2023-03-26T06:31:01.130Z,5.80
2023-03-26T06:36:04.831Z,5.50
2023-03-26T06:41:07.809Z,5.60
2023-03-26T06:46:13.361Z,7.60
2023-03-26T06:51:16.730Z,6.80
2023-03-26T06:56:19.677Z,5.20
2023-03-26T07:01:23.066Z,6.10
2023-03-26T07:06:26.615Z,8.20
2023-03-26T07:11:29.693Z,6.90
2023-03-26T07:16:32.833Z,6.10
2023-03-26T07:21:36.192Z,7.30
2023-03-26T07:26:57.219Z,5.60
2023-03-26T07:32:25.767Z,5.10
2023-03-26T07:37:47.968Z,6.60
2023-03-26T07:43:11.782Z,6.40
2023-03-26T07:48:29.716Z,6.20
2023-03-26T07:53:33.106Z,6.00
2023-03-26T07:58:45.349Z,6.20
2023-03-26T08:04:24.056Z,4.20
2023-03-26T08:10:01.902Z,5.80
2023-03-26T08:15:49.988Z,6.10
2023-03-26T08:21:08.066Z,5.60
2023-03-26T08:26:22.227Z,4.40
2023-03-26T08:31:51.959Z,5.00
2023-03-26T08:36:55.030Z,4.10
2023-03-26T08:42:24.049Z,4.50
2023-03-26T08:48:03.188Z,5.40
2023-03-26T08:53:33.041Z,5.30
2023-03-26T08:59:14.413Z,6.10
2023-03-26T09:04:40.443Z,4.70
2023-03-26T09:10:14.501Z,5.70
2023-03-26T09:16:01.355Z,3.90
2023-03-26T09:21:44.544Z,5.50
2023-03-26T09:27:18.907Z,4.10
2023-03-26T09:32:59.595Z,5.10
2023-03-26T09:38:14.895Z,4.50
2023-03-26T09:43:58.899Z,3.30
2023-03-26T09:49:35.400Z,3.30
2023-03-26T09:54:57.092Z,3.60
2023-03-26T10:00:32.026Z,4.20
2023-03-26T10:06:06.928Z,2.90
2023-03-26T10:11:33.730Z,4.50
2023-03-26T10:17:03.252Z,3.80
2023-03-26T10:22:32.067Z,2.20
2023-03-26T10:28:24.865Z,2.30
2023-03-26T10:34:28.747Z,1.70
2023-03-26T10:40:14.525Z,1.50
2023-03-26T10:45:41.770Z,2.10
2023-03-26T10:51:29.200Z,3.20
2023-03-26T10:56:45.420Z,2.30
2023-03-26T11:02:06.803Z,1.80
2023-03-26T11:07:22.474Z,1.20
2023-03-26T11:12:52.856Z,0.80
2023-03-26T11:18:18.943Z,1.60
2023-03-26T11:23:36.088Z,1.70
2023-03-26T11:29:30.956Z,1.50
2023-03-26T11:34:42.019Z,2.50
2023-03-26T11:39:50.954Z,2.70
2023-03-26T11:45:00.813Z,2.10
2023-03-26T11:50:05.187Z,2.30
2023-03-26T11:55:12.640Z,3.20
2023-03-26T12:00:19.441Z,2.10
2023-03-26T12:05:26.631Z,2.80
2023-03-26T12:10:35.070Z,2.00
2023-03-26T12:20:45.847Z,3.60
2023-03-26T12:25:48.776Z,1.70
2023-03-26T12:31:02.924Z,2.50
2023-03-26T12:36:30.405Z,2.90
2023-03-26T12:44:42.183Z,2.70
2023-03-26T12:47:55.194Z,3.50
2023-03-26T12:52:54.015Z,2.80
2023-03-26T12:58:21.906Z,2.00
2023-03-26T13:03:46.963Z,2.60
2023-03-26T13:09:12.194Z,2.30
2023-03-26T13:15:27.487Z,1.90
2023-03-26T13:21:18.762Z,3.70
2023-03-26T13:26:46.765Z,1.40
2023-03-26T13:32:17.669Z,4.30
2023-03-26T13:38:08.293Z,1.40
2023-03-26T13:43:39.861Z,1.30
2023-03-26T13:49:01.964Z,1.90
2023-03-26T13:54:37.034Z,1.10
2023-03-26T13:59:52.197Z,17.70
2023-03-26T14:05:01.364Z,1.30
2023-03-26T14:10:07.445Z,1.40
2023-03-26T14:15:32.651Z,1.20
2023-03-26T14:21:26.160Z,2.00
2023-03-26T14:27:18.588Z,1.20
2023-03-26T14:32:47.167Z,1.20
2023-03-26T14:38:22.878Z,0.80
2023-03-26T14:44:06.724Z,0.90
2023-03-26T14:49:30.778Z,0.60
2023-03-26T14:54:37.860Z,1.20
2023-03-26T15:00:21.267Z,1.20
2023-03-26T15:06:03.076Z,1.40
2023-03-26T15:11:43.361Z,1.60
2023-03-26T15:17:12.853Z,1.00
2023-03-26T15:22:59.183Z,2.00
2023-03-26T16:27:40.163Z,2.40
2023-03-26T16:39:48.240Z,3.40
2023-03-26T16:45:20.482Z,2.70
2023-03-26T17:06:21.539Z,3.50
2023-03-26T17:20:17.327Z,3.60
2023-03-26T17:25:36.789Z,4.30
2023-03-26T17:30:58.295Z,4.00
2023-03-26T17:36:21.404Z,4.80
2023-03-26T17:42:13.099Z,10.50
2023-03-26T17:47:34.180Z,8.70
2023-03-26T17:52:57.477Z,9.70
2023-03-26T17:58:50.736Z,8.30
2023-03-26T18:20:50.205Z,5.20
2023-03-26T18:26:18.737Z,7.00
2023-03-26T18:31:26.387Z,6.90
2023-03-26T18:54:55.313Z,12.80
2023-03-26T19:00:47.413Z,9.50
2023-03-26T19:25:03.020Z,10.50
2023-03-26T19:30:07.672Z,10.60
2023-03-26T19:35:21.342Z,10.40
2023-03-26T19:40:31.981Z,11.20
2023-03-26T19:45:34.805Z,9.10
2023-03-26T19:50:42.213Z,9.90
2023-03-26T19:56:16.079Z,11.20
2023-03-26T20:01:27.482Z,10.50
2023-03-26T20:06:42.528Z,13.60
2023-03-26T20:11:47.238Z,14.40
2023-03-26T20:26:54.796Z,14.40
2023-03-26T20:47:27.617Z,15.20
2023-03-26T21:00:20.194Z,16.70
2023-03-26T21:05:25.905Z,17.90
2023-03-26T21:17:39.378Z,18.90
2023-03-26T21:23:26.393Z,17.80
2023-03-26T21:47:55.782Z,16.80
2023-03-26T22:02:10.534Z,15.00
2023-03-26T22:08:27.745Z,14.70
2023-03-26T22:20:12.736Z,17.20
2023-03-26T22:39:33.927Z,17.40
2023-03-26T22:44:37.275Z,17.60
2023-03-26T22:49:55.578Z,17.40
2023-03-26T23:01:10.771Z,20.60
2023-03-26T23:06:13.770Z,18.70
2023-03-26T23:11:18.751Z,20.50
2023-03-26T23:16:21.958Z,21.90
2023-03-26T23:21:25.723Z,20.40
2023-03-26T23:26:35.006Z,21.00
2023-03-26T23:31:42.491Z,21.40
2023-03-26T23:36:45.532Z,21.20
2023-03-26T23:41:48.500Z,19.40
2023-03-26T23:46:58.043Z,21.50
2023-03-26T23:52:01.031Z,20.40
2023-03-26T23:57:06.725Z,19.70
